Harpers Ferry, West Virginia
Current Conditions -  °F | °C
As of 12:53 AM on Monday 26 Jan 2015 (Local Time) from KMRB Reporting Station
Haze Haze  
Wind Chill: 30°   Ceiling: 400
Heat Index: 36°   Visibility: 3mi
Dew Point: 33°   Wind: 8mph
Humidity: 89%   Direction: 20°NNE
Pressure: 29.81"   Gusts: NA
Location:  39.33°N, 77.74°W
Report Text: KMRB 260553Z AUTO 02007KT 3SM BR OVC004 02/01 A2981 RMK AO2 SLP098 60000 T00220006 10044 20022 58005 TSNO
Loading
Personal Weather Stations






























Interactive Weather Map New forecast layout! Learn more

10-Day Weather Forecast

Advertisements
Track Severe Weather on mobile